sensor_id;sensor_type;location;lat;lon;timestamp;temperature;humidity
15617;DHT22;7908;51.688;7.130;2022-08-25T00:00:48;20.30;99.90
15617;DHT22;7908;51.688;7.130;2022-08-25T00:03:20;20.30;99.90
15617;DHT22;7908;51.688;7.130;2022-08-25T00:05:49;20.30;99.90
15617;DHT22;7908;51.688;7.130;2022-08-25T00:08:19;20.20;99.90
15617;DHT22;7908;51.688;7.130;2022-08-25T00:10:53;20.20;99.90
15617;DHT22;7908;51.688;7.130;2022-08-25T00:13:30;20.20;99.90
15617;DHT22;7908;51.688;7.130;2022-08-25T00:16:02;20.10;99.90
15617;DHT22;7908;51.688;7.130;2022-08-25T00:18:32;20.10;99.90
15617;DHT22;7908;51.688;7.130;2022-08-25T00:21:03;20.10;99.90
15617;DHT22;7908;51.688;7.130;2022-08-25T00:23:33;20.10;99.90
15617;DHT22;7908;51.688;7.130;2022-08-25T00:26:04;20.10;99.90
15617;DHT22;7908;51.688;7.130;2022-08-25T00:28:34;20.00;99.90
15617;DHT22;7908;51.688;7.130;2022-08-25T00:31:09;20.00;99.90
15617;DHT22;7908;51.688;7.130;2022-08-25T00:33:39;19.90;99.90
15617;DHT22;7908;51.688;7.130;2022-08-25T00:36:09;19.90;99.90
15617;DHT22;7908;51.688;7.130;2022-08-25T00:38:39;19.80;99.90
15617;DHT22;7908;51.688;7.130;2022-08-25T00:41:16;19.80;99.90
15617;DHT22;7908;51.688;7.130;2022-08-25T00:43:50;19.80;99.90
15617;DHT22;7908;51.688;7.130;2022-08-25T00:46:26;19.80;99.90
15617;DHT22;7908;51.688;7.130;2022-08-25T00:48:59;19.80;99.90
15617;DHT22;7908;51.688;7.130;2022-08-25T00:51:33;19.70;99.90
15617;DHT22;7908;51.688;7.130;2022-08-25T00:54:06;19.70;99.90
15617;DHT22;7908;51.688;7.130;2022-08-25T00:56:43;19.70;99.90
15617;DHT22;7908;51.688;7.130;2022-08-25T00:59:14;19.70;99.90
15617;DHT22;7908;51.688;7.130;2022-08-25T01:01:44;19.60;99.90
15617;DHT22;7908;51.688;7.130;2022-08-25T01:04:13;19.60;99.90
15617;DHT22;7908;51.688;7.130;2022-08-25T01:06:43;19.60;99.90
15617;DHT22;7908;51.688;7.130;2022-08-25T01:09:15;19.60;99.90
15617;DHT22;7908;51.688;7.130;2022-08-25T01:11:48;19.60;99.90
15617;DHT22;7908;51.688;7.130;2022-08-25T01:14:22;19.50;99.90
15617;DHT22;7908;51.688;7.130;2022-08-25T01:16:55;19.50;99.90
15617;DHT22;7908;51.688;7.130;2022-08-25T01:19:26;19.40;99.90
15617;DHT22;7908;51.688;7.130;2022-08-25T01:22:04;19.40;99.90
15617;DHT22;7908;51.688;7.130;2022-08-25T01:24:37;19.40;99.90
15617;DHT22;7908;51.688;7.130;2022-08-25T01:27:11;19.40;99.90
15617;DHT22;7908;51.688;7.130;2022-08-25T01:29:44;19.40;99.90
15617;DHT22;7908;51.688;7.130;2022-08-25T01:32:23;19.40;99.90
15617;DHT22;7908;51.688;7.130;2022-08-25T01:34:56;19.30;99.90
15617;DHT22;7908;51.688;7.130;2022-08-25T01:37:33;19.30;99.90
15617;DHT22;7908;51.688;7.130;2022-08-25T01:40:06;19.20;99.90
15617;DHT22;7908;51.688;7.130;2022-08-25T01:42:51;19.20;99.90
15617;DHT22;7908;51.688;7.130;2022-08-25T01:45:23;19.10;99.90
15617;DHT22;7908;51.688;7.130;2022-08-25T01:47:59;19.10;99.90
15617;DHT22;7908;51.688;7.130;2022-08-25T01:50:29;19.10;99.90
15617;DHT22;7908;51.688;7.130;2022-08-25T01:53:04;19.10;99.90
15617;DHT22;7908;51.688;7.130;2022-08-25T01:55:40;19.10;99.90
15617;DHT22;7908;51.688;7.130;2022-08-25T01:58:22;19.00;99.90
15617;DHT22;7908;51.688;7.130;2022-08-25T02:00:54;19.00;99.90
15617;DHT22;7908;51.688;7.130;2022-08-25T02:03:30;19.00;99.90
15617;DHT22;7908;51.688;7.130;2022-08-25T02:06:04;19.00;99.90
15617;DHT22;7908;51.688;7.130;2022-08-25T02:08:37;19.00;99.90
15617;DHT22;7908;51.688;7.130;2022-08-25T02:11:10;19.00;99.90
15617;DHT22;7908;51.688;7.130;2022-08-25T02:13:41;18.90;99.90
15617;DHT22;7908;51.688;7.130;2022-08-25T02:16:17;18.90;99.90
15617;DHT22;7908;51.688;7.130;2022-08-25T02:18:50;18.80;99.90
15617;DHT22;7908;51.688;7.130;2022-08-25T02:21:19;18.80;99.90
15617;DHT22;7908;51.688;7.130;2022-08-25T02:23:53;18.80;99.90
15617;DHT22;7908;51.688;7.130;2022-08-25T02:26:24;18.80;99.90
15617;DHT22;7908;51.688;7.130;2022-08-25T02:28:54;18.80;99.90
15617;DHT22;7908;51.688;7.130;2022-08-25T02:31:24;18.80;99.90
15617;DHT22;7908;51.688;7.130;2022-08-25T02:33:57;18.80;99.90
15617;DHT22;7908;51.688;7.130;2022-08-25T02:36:26;18.70;99.90
15617;DHT22;7908;51.688;7.130;2022-08-25T02:38:58;18.70;99.90
15617;DHT22;7908;51.688;7.130;2022-08-25T02:41:33;18.70;99.90
15617;DHT22;7908;51.688;7.130;2022-08-25T02:44:09;18.60;99.90
15617;DHT22;7908;51.688;7.130;2022-08-25T02:46:39;18.60;99.90
15617;DHT22;7908;51.688;7.130;2022-08-25T02:49:12;18.50;99.90
15617;DHT22;7908;51.688;7.130;2022-08-25T02:51:43;18.50;99.90
15617;DHT22;7908;51.688;7.130;2022-08-25T02:54:18;18.50;99.90
15617;DHT22;7908;51.688;7.130;2022-08-25T02:56:52;18.50;99.90
15617;DHT22;7908;51.688;7.130;2022-08-25T02:59:27;18.40;99.90
15617;DHT22;7908;51.688;7.130;2022-08-25T03:01:59;18.40;99.90
15617;DHT22;7908;51.688;7.130;2022-08-25T03:04:35;18.30;99.90
15617;DHT22;7908;51.688;7.130;2022-08-25T03:07:08;18.30;99.90
15617;DHT22;7908;51.688;7.130;2022-08-25T03:09:46;18.30;99.90
15617;DHT22;7908;51.688;7.130;2022-08-25T03:12:16;18.30;99.90
15617;DHT22;7908;51.688;7.130;2022-08-25T03:14:45;18.20;99.90
15617;DHT22;7908;51.688;7.130;2022-08-25T03:17:15;18.20;99.90
15617;DHT22;7908;51.688;7.130;2022-08-25T03:19:45;18.20;99.90
15617;DHT22;7908;51.688;7.130;2022-08-25T03:22:16;18.20;99.90
15617;DHT22;7908;51.688;7.130;2022-08-25T03:24:51;18.10;99.90
15617;DHT22;7908;51.688;7.130;2022-08-25T03:27:48;18.10;99.90
15617;DHT22;7908;51.688;7.130;2022-08-25T03:30:18;18.10;99.90
15617;DHT22;7908;51.688;7.130;2022-08-25T03:32:47;18.10;99.90
15617;DHT22;7908;51.688;7.130;2022-08-25T03:35:19;18.10;99.90
15617;DHT22;7908;51.688;7.130;2022-08-25T03:37:48;18.00;99.90
15617;DHT22;7908;51.688;7.130;2022-08-25T03:40:19;18.00;99.90
15617;DHT22;7908;51.688;7.130;2022-08-25T03:42:50;18.00;99.90
15617;DHT22;7908;51.688;7.130;2022-08-25T03:45:23;18.00;99.90
15617;DHT22;7908;51.688;7.130;2022-08-25T03:47:53;18.00;99.90
15617;DHT22;7908;51.688;7.130;2022-08-25T03:50:22;18.00;99.90
15617;DHT22;7908;51.688;7.130;2022-08-25T03:52:56;18.00;99.90
15617;DHT22;7908;51.688;7.130;2022-08-25T03:55:29;18.00;99.90
15617;DHT22;7908;51.688;7.130;2022-08-25T03:57:59;18.00;99.90
15617;DHT22;7908;51.688;7.130;2022-08-25T04:00:28;17.90;99.90
15617;DHT22;7908;51.688;7.130;2022-08-25T04:02:59;17.90;99.90
15617;DHT22;7908;51.688;7.130;2022-08-25T04:05:31;17.90;99.90
15617;DHT22;7908;51.688;7.130;2022-08-25T04:08:04;17.80;99.90
15617;DHT22;7908;51.688;7.130;2022-08-25T04:10:40;17.80;99.90
15617;DHT22;7908;51.688;7.130;2022-08-25T04:13:12;17.80;99.90
15617;DHT22;7908;51.688;7.130;2022-08-25T04:15:43;17.80;99.90
15617;DHT22;7908;51.688;7.130;2022-08-25T04:18:12;17.80;99.90
15617;DHT22;7908;51.688;7.130;2022-08-25T04:20:42;17.80;99.90
15617;DHT22;7908;51.688;7.130;2022-08-25T04:23:17;17.70;99.90
15617;DHT22;7908;51.688;7.130;2022-08-25T04:25:54;17.70;99.90
15617;DHT22;7908;51.688;7.130;2022-08-25T04:28:24;17.70;99.90
15617;DHT22;7908;51.688;7.130;2022-08-25T04:30:57;17.60;99.90
15617;DHT22;7908;51.688;7.130;2022-08-25T04:33:27;17.60;99.90
15617;DHT22;7908;51.688;7.130;2022-08-25T04:36:00;17.60;99.90
15617;DHT22;7908;51.688;7.130;2022-08-25T04:38:42;17.60;99.90
15617;DHT22;7908;51.688;7.130;2022-08-25T04:41:16;17.50;99.90
15617;DHT22;7908;51.688;7.130;2022-08-25T04:43:48;17.50;99.90
15617;DHT22;7908;51.688;7.130;2022-08-25T04:46:22;17.50;99.90
15617;DHT22;7908;51.688;7.130;2022-08-25T04:48:53;17.50;99.90
15617;DHT22;7908;51.688;7.130;2022-08-25T04:51:27;17.50;99.90
15617;DHT22;7908;51.688;7.130;2022-08-25T04:53:59;17.50;99.90
15617;DHT22;7908;51.688;7.130;2022-08-25T04:56:31;17.50;99.90
15617;DHT22;7908;51.688;7.130;2022-08-25T04:59:02;17.50;99.90
15617;DHT22;7908;51.688;7.130;2022-08-25T05:01:36;17.40;99.90
15617;DHT22;7908;51.688;7.130;2022-08-25T05:04:10;17.50;99.90
15617;DHT22;7908;51.688;7.130;2022-08-25T05:06:54;17.50;99.90
15617;DHT22;7908;51.688;7.130;2022-08-25T05:09:24;17.50;99.90
15617;DHT22;7908;51.688;7.130;2022-08-25T05:12:06;17.50;99.90
15617;DHT22;7908;51.688;7.130;2022-08-25T05:14:40;17.60;99.90
15617;DHT22;7908;51.688;7.130;2022-08-25T05:17:09;17.60;99.90
15617;DHT22;7908;51.688;7.130;2022-08-25T05:19:44;17.70;99.90
15617;DHT22;7908;51.688;7.130;2022-08-25T05:22:14;17.70;99.90
15617;DHT22;7908;51.688;7.130;2022-08-25T05:24:46;17.80;99.90
15617;DHT22;7908;51.688;7.130;2022-08-25T05:27:25;17.80;99.90
15617;DHT22;7908;51.688;7.130;2022-08-25T05:29:57;17.90;99.90
15617;DHT22;7908;51.688;7.130;2022-08-25T05:32:37;18.00;99.90
15617;DHT22;7908;51.688;7.130;2022-08-25T05:35:14;18.10;99.90
15617;DHT22;7908;51.688;7.130;2022-08-25T05:37:49;18.20;99.90
15617;DHT22;7908;51.688;7.130;2022-08-25T05:40:18;18.30;99.90
15617;DHT22;7908;51.688;7.130;2022-08-25T05:42:50;18.40;99.90
15617;DHT22;7908;51.688;7.130;2022-08-25T05:45:28;18.40;99.90
15617;DHT22;7908;51.688;7.130;2022-08-25T05:48:00;18.50;99.90
15617;DHT22;7908;51.688;7.130;2022-08-25T05:50:35;18.70;99.90
15617;DHT22;7908;51.688;7.130;2022-08-25T05:53:10;18.80;99.90
15617;DHT22;7908;51.688;7.130;2022-08-25T05:55:43;18.80;99.90
15617;DHT22;7908;51.688;7.130;2022-08-25T05:58:22;19.00;99.90
15617;DHT22;7908;51.688;7.130;2022-08-25T06:00:57;19.00;99.90
15617;DHT22;7908;51.688;7.130;2022-08-25T06:03:49;19.10;99.90
15617;DHT22;7908;51.688;7.130;2022-08-25T06:06:21;19.20;99.90
15617;DHT22;7908;51.688;7.130;2022-08-25T06:08:53;19.30;99.90
15617;DHT22;7908;51.688;7.130;2022-08-25T06:11:26;19.40;99.90
15617;DHT22;7908;51.688;7.130;2022-08-25T06:13:59;19.50;99.90
15617;DHT22;7908;51.688;7.130;2022-08-25T06:16:29;19.60;99.90
15617;DHT22;7908;51.688;7.130;2022-08-25T06:18:59;19.70;99.90
15617;DHT22;7908;51.688;7.130;2022-08-25T06:21:31;19.90;99.90
15617;DHT22;7908;51.688;7.130;2022-08-25T06:24:01;19.90;99.90
15617;DHT22;7908;51.688;7.130;2022-08-25T06:26:33;20.10;99.90
15617;DHT22;7908;51.688;7.130;2022-08-25T06:29:06;20.20;99.90
15617;DHT22;7908;51.688;7.130;2022-08-25T06:31:39;20.30;99.90
15617;DHT22;7908;51.688;7.130;2022-08-25T06:34:09;20.40;99.90
15617;DHT22;7908;51.688;7.130;2022-08-25T06:36:41;20.50;99.90
15617;DHT22;7908;51.688;7.130;2022-08-25T06:39:21;20.50;99.90
15617;DHT22;7908;51.688;7.130;2022-08-25T06:41:55;20.60;99.90
15617;DHT22;7908;51.688;7.130;2022-08-25T06:44:34;20.70;99.90
15617;DHT22;7908;51.688;7.130;2022-08-25T06:47:04;20.90;99.90
15617;DHT22;7908;51.688;7.130;2022-08-25T06:49:39;21.00;99.90
15617;DHT22;7908;51.688;7.130;2022-08-25T06:52:10;21.10;99.90
15617;DHT22;7908;51.688;7.130;2022-08-25T06:54:44;21.20;99.90
15617;DHT22;7908;51.688;7.130;2022-08-25T06:57:15;21.40;99.90
15617;DHT22;7908;51.688;7.130;2022-08-25T06:59:53;21.50;99.90
15617;DHT22;7908;51.688;7.130;2022-08-25T07:02:32;21.70;99.90
15617;DHT22;7908;51.688;7.130;2022-08-25T07:05:06;21.80;99.90
15617;DHT22;7908;51.688;7.130;2022-08-25T07:07:53;22.00;99.90
15617;DHT22;7908;51.688;7.130;2022-08-25T07:10:22;22.20;99.90
15617;DHT22;7908;51.688;7.130;2022-08-25T07:12:55;22.40;99.90
15617;DHT22;7908;51.688;7.130;2022-08-25T07:15:28;22.60;99.90
15617;DHT22;7908;51.688;7.130;2022-08-25T07:18:03;22.70;99.90
15617;DHT22;7908;51.688;7.130;2022-08-25T07:20:37;22.90;99.90
15617;DHT22;7908;51.688;7.130;2022-08-25T07:23:12;23.00;99.90
15617;DHT22;7908;51.688;7.130;2022-08-25T07:25:43;23.10;99.90
15617;DHT22;7908;51.688;7.130;2022-08-25T07:28:15;23.20;99.90
15617;DHT22;7908;51.688;7.130;2022-08-25T07:31:00;23.30;99.90
15617;DHT22;7908;51.688;7.130;2022-08-25T07:33:38;23.40;99.90
15617;DHT22;7908;51.688;7.130;2022-08-25T07:36:31;23.50;99.90
15617;DHT22;7908;51.688;7.130;2022-08-25T07:39:02;23.60;99.90
15617;DHT22;7908;51.688;7.130;2022-08-25T07:41:38;23.70;99.90
15617;DHT22;7908;51.688;7.130;2022-08-25T07:44:11;23.70;99.90
15617;DHT22;7908;51.688;7.130;2022-08-25T07:46:52;23.90;99.90
15617;DHT22;7908;51.688;7.130;2022-08-25T07:49:35;23.90;99.90
15617;DHT22;7908;51.688;7.130;2022-08-25T07:52:06;24.00;99.90
15617;DHT22;7908;51.688;7.130;2022-08-25T07:54:41;24.20;99.90
15617;DHT22;7908;51.688;7.130;2022-08-25T07:57:16;24.30;99.90
15617;DHT22;7908;51.688;7.130;2022-08-25T07:59:47;24.40;99.90
15617;DHT22;7908;51.688;7.130;2022-08-25T08:02:25;24.50;99.90
15617;DHT22;7908;51.688;7.130;2022-08-25T08:05:00;24.60;99.90
15617;DHT22;7908;51.688;7.130;2022-08-25T08:07:37;24.70;99.90
15617;DHT22;7908;51.688;7.130;2022-08-25T08:10:14;24.70;99.90
15617;DHT22;7908;51.688;7.130;2022-08-25T08:13:10;24.80;99.90
15617;DHT22;7908;51.688;7.130;2022-08-25T08:15:50;24.90;99.90
15617;DHT22;7908;51.688;7.130;2022-08-25T08:18:25;25.00;99.90
15617;DHT22;7908;51.688;7.130;2022-08-25T08:20:55;25.10;99.90
15617;DHT22;7908;51.688;7.130;2022-08-25T08:23:31;25.10;99.90
15617;DHT22;7908;51.688;7.130;2022-08-25T08:26:04;25.30;99.90
15617;DHT22;7908;51.688;7.130;2022-08-25T08:28:35;25.40;99.90
15617;DHT22;7908;51.688;7.130;2022-08-25T08:31:18;25.50;99.90
15617;DHT22;7908;51.688;7.130;2022-08-25T08:34:02;25.50;99.90
15617;DHT22;7908;51.688;7.130;2022-08-25T08:36:35;25.60;99.90
15617;DHT22;7908;51.688;7.130;2022-08-25T08:39:11;25.70;99.90
15617;DHT22;7908;51.688;7.130;2022-08-25T08:41:52;25.90;99.90
15617;DHT22;7908;51.688;7.130;2022-08-25T08:44:57;25.90;99.90
15617;DHT22;7908;51.688;7.130;2022-08-25T08:47:39;25.90;99.90
15617;DHT22;7908;51.688;7.130;2022-08-25T08:50:24;26.00;99.90
15617;DHT22;7908;51.688;7.130;2022-08-25T08:53:09;26.10;99.90
15617;DHT22;7908;51.688;7.130;2022-08-25T08:55:44;26.30;99.90
15617;DHT22;7908;51.688;7.130;2022-08-25T08:58:21;26.40;99.90
15617;DHT22;7908;51.688;7.130;2022-08-25T09:00:57;26.50;99.90
15617;DHT22;7908;51.688;7.130;2022-08-25T09:03:36;26.50;99.90
15617;DHT22;7908;51.688;7.130;2022-08-25T09:06:11;26.60;99.90
15617;DHT22;7908;51.688;7.130;2022-08-25T09:08:44;26.60;99.90
15617;DHT22;7908;51.688;7.130;2022-08-25T09:11:24;26.60;99.90
15617;DHT22;7908;51.688;7.130;2022-08-25T09:14:12;26.70;99.90
15617;DHT22;7908;51.688;7.130;2022-08-25T09:17:03;26.80;99.90
15617;DHT22;7908;51.688;7.130;2022-08-25T09:20:02;26.90;99.90
15617;DHT22;7908;51.688;7.130;2022-08-25T09:22:53;27.00;99.90
15617;DHT22;7908;51.688;7.130;2022-08-25T09:25:35;27.00;99.90
15617;DHT22;7908;51.688;7.130;2022-08-25T09:28:27;27.10;99.90
15617;DHT22;7908;51.688;7.130;2022-08-25T09:31:02;27.20;99.90
15617;DHT22;7908;51.688;7.130;2022-08-25T09:33:34;27.30;99.90
15617;DHT22;7908;51.688;7.130;2022-08-25T09:36:06;27.40;99.90
15617;DHT22;7908;51.688;7.130;2022-08-25T09:38:41;27.50;99.90
15617;DHT22;7908;51.688;7.130;2022-08-25T09:44:05;27.60;99.90
15617;DHT22;7908;51.688;7.130;2022-08-25T09:47:01;27.60;99.90
15617;DHT22;7908;51.688;7.130;2022-08-25T09:49:39;27.70;99.90
15617;DHT22;7908;51.688;7.130;2022-08-25T09:52:23;27.80;99.90
15617;DHT22;7908;51.688;7.130;2022-08-25T09:55:12;27.90;99.90
15617;DHT22;7908;51.688;7.130;2022-08-25T09:57:54;27.90;99.90
15617;DHT22;7908;51.688;7.130;2022-08-25T10:00:39;28.00;99.90
15617;DHT22;7908;51.688;7.130;2022-08-25T10:03:21;28.00;99.90
15617;DHT22;7908;51.688;7.130;2022-08-25T10:06:04;28.00;99.90
15617;DHT22;7908;51.688;7.130;2022-08-25T10:08:57;28.10;99.90
15617;DHT22;7908;51.688;7.130;2022-08-25T10:11:45;28.30;99.90
15617;DHT22;7908;51.688;7.130;2022-08-25T10:14:31;28.40;99.90
15617;DHT22;7908;51.688;7.130;2022-08-25T10:17:18;28.30;99.90
15617;DHT22;7908;51.688;7.130;2022-08-25T10:20:16;28.30;99.90
15617;DHT22;7908;51.688;7.130;2022-08-25T10:22:48;28.30;99.90
15617;DHT22;7908;51.688;7.130;2022-08-25T10:25:27;28.20;99.90
15617;DHT22;7908;51.688;7.130;2022-08-25T10:28:09;28.20;99.90
15617;DHT22;7908;51.688;7.130;2022-08-25T10:30:54;28.30;99.90
15617;DHT22;7908;51.688;7.130;2022-08-25T10:33:35;28.60;99.90
15617;DHT22;7908;51.688;7.130;2022-08-25T10:36:19;28.60;99.40
15617;DHT22;7908;51.688;7.130;2022-08-25T10:38:56;28.60;99.70
15617;DHT22;7908;51.688;7.130;2022-08-25T10:41:46;28.60;99.80
15617;DHT22;7908;51.688;7.130;2022-08-25T10:44:41;28.80;98.80
15617;DHT22;7908;51.688;7.130;2022-08-25T10:47:53;28.90;99.00
15617;DHT22;7908;51.688;7.130;2022-08-25T10:50:38;28.80;99.10
15617;DHT22;7908;51.688;7.130;2022-08-25T10:53:25;28.80;98.90
15617;DHT22;7908;51.688;7.130;2022-08-25T10:56:11;28.70;98.60
15617;DHT22;7908;51.688;7.130;2022-08-25T10:59:19;28.80;97.90
15617;DHT22;7908;51.688;7.130;2022-08-25T11:02:31;28.80;97.90
15617;DHT22;7908;51.688;7.130;2022-08-25T11:05:09;29.00;97.10
15617;DHT22;7908;51.688;7.130;2022-08-25T11:07:56;29.10;97.60
15617;DHT22;7908;51.688;7.130;2022-08-25T11:10:41;29.00;96.80
15617;DHT22;7908;51.688;7.130;2022-08-25T11:13:24;29.00;96.20
15617;DHT22;7908;51.688;7.130;2022-08-25T11:16:05;28.80;96.60
15617;DHT22;7908;51.688;7.130;2022-08-25T11:19:02;28.90;96.20
15617;DHT22;7908;51.688;7.130;2022-08-25T11:21:52;29.00;96.40
15617;DHT22;7908;51.688;7.130;2022-08-25T11:24:43;29.20;96.50
15617;DHT22;7908;51.688;7.130;2022-08-25T11:27:21;29.20;96.30
15617;DHT22;7908;51.688;7.130;2022-08-25T11:29:58;29.10;96.50
15617;DHT22;7908;51.688;7.130;2022-08-25T11:32:36;29.10;96.70
15617;DHT22;7908;51.688;7.130;2022-08-25T11:35:15;29.10;96.50
15617;DHT22;7908;51.688;7.130;2022-08-25T11:38:09;29.00;96.40
15617;DHT22;7908;51.688;7.130;2022-08-25T11:40:59;29.10;96.70
15617;DHT22;7908;51.688;7.130;2022-08-25T11:44:08;29.10;96.40
15617;DHT22;7908;51.688;7.130;2022-08-25T11:50:23;29.20;95.40
15617;DHT22;7908;51.688;7.130;2022-08-25T11:53:27;29.30;95.30
15617;DHT22;7908;51.688;7.130;2022-08-25T11:56:28;29.40;95.60
15617;DHT22;7908;51.688;7.130;2022-08-25T11:59:09;29.30;95.60
15617;DHT22;7908;51.688;7.130;2022-08-25T12:02:17;29.40;94.70
15617;DHT22;7908;51.688;7.130;2022-08-25T12:05:00;29.30;94.90
15617;DHT22;7908;51.688;7.130;2022-08-25T12:08:05;29.40;94.80
15617;DHT22;7908;51.688;7.130;2022-08-25T12:10:55;29.70;94.30
15617;DHT22;7908;51.688;7.130;2022-08-25T12:13:44;29.80;93.60
15617;DHT22;7908;51.688;7.130;2022-08-25T12:16:38;29.80;93.90
15617;DHT22;7908;51.688;7.130;2022-08-25T12:19:52;29.70;93.60
15617;DHT22;7908;51.688;7.130;2022-08-25T12:22:55;29.60;93.10
15617;DHT22;7908;51.688;7.130;2022-08-25T12:25:49;29.60;92.20
15617;DHT22;7908;51.688;7.130;2022-08-25T12:28:37;29.60;92.30
15617;DHT22;7908;51.688;7.130;2022-08-25T12:31:28;29.60;93.10
15617;DHT22;7908;51.688;7.130;2022-08-25T12:34:17;29.70;93.10
15617;DHT22;7908;51.688;7.130;2022-08-25T12:37:11;29.70;93.20
15617;DHT22;7908;51.688;7.130;2022-08-25T12:40:04;29.70;92.10
15617;DHT22;7908;51.688;7.130;2022-08-25T12:42:59;29.90;92.10
15617;DHT22;7908;51.688;7.130;2022-08-25T12:45:47;30.00;91.50
15617;DHT22;7908;51.688;7.130;2022-08-25T12:51:51;29.90;91.10
15617;DHT22;7908;51.688;7.130;2022-08-25T12:54:40;29.90;91.80
15617;DHT22;7908;51.688;7.130;2022-08-25T12:57:37;29.80;91.60
15617;DHT22;7908;51.688;7.130;2022-08-25T13:00:26;29.90;91.90
15617;DHT22;7908;51.688;7.130;2022-08-25T13:03:20;29.90;91.80
15617;DHT22;7908;51.688;7.130;2022-08-25T13:06:13;30.10;91.40
15617;DHT22;7908;51.688;7.130;2022-08-25T13:09:19;30.40;90.80
15617;DHT22;7908;51.688;7.130;2022-08-25T13:12:15;30.50;90.50
15617;DHT22;7908;51.688;7.130;2022-08-25T13:14:53;30.40;91.10
15617;DHT22;7908;51.688;7.130;2022-08-25T13:17:42;30.30;90.40
15617;DHT22;7908;51.688;7.130;2022-08-25T13:20:15;30.30;90.40
15617;DHT22;7908;51.688;7.130;2022-08-25T13:22:55;30.20;90.50
15617;DHT22;7908;51.688;7.130;2022-08-25T13:25:33;30.20;90.50
15617;DHT22;7908;51.688;7.130;2022-08-25T13:28:20;30.30;89.80
15617;DHT22;7908;51.688;7.130;2022-08-25T13:31:08;30.20;89.60
15617;DHT22;7908;51.688;7.130;2022-08-25T13:34:00;30.10;90.20
15617;DHT22;7908;51.688;7.130;2022-08-25T13:36:43;30.10;90.60
15617;DHT22;7908;51.688;7.130;2022-08-25T13:39:30;30.20;90.30
15617;DHT22;7908;51.688;7.130;2022-08-25T13:42:22;30.30;90.90
15617;DHT22;7908;51.688;7.130;2022-08-25T13:45:03;30.50;90.10
15617;DHT22;7908;51.688;7.130;2022-08-25T13:47:36;30.50;89.80
15617;DHT22;7908;51.688;7.130;2022-08-25T13:50:42;30.60;88.60
15617;DHT22;7908;51.688;7.130;2022-08-25T13:53:28;30.60;87.50
15617;DHT22;7908;51.688;7.130;2022-08-25T13:56:04;30.60;87.30
15617;DHT22;7908;51.688;7.130;2022-08-25T13:58:42;30.50;88.30
15617;DHT22;7908;51.688;7.130;2022-08-25T14:01:18;30.40;87.90
15617;DHT22;7908;51.688;7.130;2022-08-25T14:04:24;30.40;88.20
15617;DHT22;7908;51.688;7.130;2022-08-25T14:07:24;30.40;89.90
15617;DHT22;7908;51.688;7.130;2022-08-25T14:10:08;30.60;86.50
15617;DHT22;7908;51.688;7.130;2022-08-25T14:13:07;30.60;87.40
15617;DHT22;7908;51.688;7.130;2022-08-25T14:15:39;30.60;87.20
15617;DHT22;7908;51.688;7.130;2022-08-25T14:18:18;30.70;87.40
15617;DHT22;7908;51.688;7.130;2022-08-25T14:20:54;30.70;86.20
15617;DHT22;7908;51.688;7.130;2022-08-25T14:23:40;30.70;85.70
15617;DHT22;7908;51.688;7.130;2022-08-25T14:26:15;30.70;86.50
15617;DHT22;7908;51.688;7.130;2022-08-25T14:28:47;30.80;86.90
15617;DHT22;7908;51.688;7.130;2022-08-25T14:34:16;30.80;85.90
15617;DHT22;7908;51.688;7.130;2022-08-25T14:37:00;30.70;85.60
15617;DHT22;7908;51.688;7.130;2022-08-25T14:40:05;30.50;86.00
15617;DHT22;7908;51.688;7.130;2022-08-25T14:42:45;30.40;86.40
15617;DHT22;7908;51.688;7.130;2022-08-25T14:45:23;30.40;86.00
15617;DHT22;7908;51.688;7.130;2022-08-25T14:47:58;30.30;86.20
15617;DHT22;7908;51.688;7.130;2022-08-25T14:50:36;30.40;86.10
15617;DHT22;7908;51.688;7.130;2022-08-25T14:53:33;30.50;85.40
15617;DHT22;7908;51.688;7.130;2022-08-25T14:56:10;30.60;84.60
15617;DHT22;7908;51.688;7.130;2022-08-25T14:58:48;30.60;84.50
15617;DHT22;7908;51.688;7.130;2022-08-25T15:01:24;30.60;85.30
15617;DHT22;7908;51.688;7.130;2022-08-25T15:04:11;30.60;86.10
15617;DHT22;7908;51.688;7.130;2022-08-25T15:06:56;30.60;84.60
15617;DHT22;7908;51.688;7.130;2022-08-25T15:09:52;30.70;83.60
15617;DHT22;7908;51.688;7.130;2022-08-25T15:12:24;30.60;82.80
15617;DHT22;7908;51.688;7.130;2022-08-25T15:15:19;30.60;82.70
15617;DHT22;7908;51.688;7.130;2022-08-25T15:17:54;30.60;82.20
15617;DHT22;7908;51.688;7.130;2022-08-25T15:20:38;30.60;83.00
15617;DHT22;7908;51.688;7.130;2022-08-25T15:23:31;30.60;82.70
15617;DHT22;7908;51.688;7.130;2022-08-25T15:26:17;30.60;81.70
15617;DHT22;7908;51.688;7.130;2022-08-25T15:28:54;30.60;81.80
15617;DHT22;7908;51.688;7.130;2022-08-25T15:31:38;30.60;82.60
15617;DHT22;7908;51.688;7.130;2022-08-25T15:34:21;30.60;81.80
15617;DHT22;7908;51.688;7.130;2022-08-25T15:36:59;30.60;83.40
15617;DHT22;7908;51.688;7.130;2022-08-25T15:39:32;30.60;83.50
15617;DHT22;7908;51.688;7.130;2022-08-25T15:42:11;30.60;83.80
15617;DHT22;7908;51.688;7.130;2022-08-25T15:45:07;30.50;81.90
15617;DHT22;7908;51.688;7.130;2022-08-25T15:47:44;30.50;80.70
15617;DHT22;7908;51.688;7.130;2022-08-25T15:50:24;30.50;80.80
15617;DHT22;7908;51.688;7.130;2022-08-25T15:53:00;30.50;81.10
15617;DHT22;7908;51.688;7.130;2022-08-25T15:55:42;30.50;81.80
15617;DHT22;7908;51.688;7.130;2022-08-25T15:58:20;30.50;83.10
15617;DHT22;7908;51.688;7.130;2022-08-25T16:01:00;30.50;85.00
15617;DHT22;7908;51.688;7.130;2022-08-25T16:03:36;30.40;86.50
15617;DHT22;7908;51.688;7.130;2022-08-25T16:06:11;30.40;82.20
15617;DHT22;7908;51.688;7.130;2022-08-25T16:08:43;30.40;84.10
15617;DHT22;7908;51.688;7.130;2022-08-25T16:11:29;30.30;84.00
15617;DHT22;7908;51.688;7.130;2022-08-25T16:14:05;30.30;81.50
15617;DHT22;7908;51.688;7.130;2022-08-25T16:16:49;30.30;82.30
15617;DHT22;7908;51.688;7.130;2022-08-25T16:19:25;30.30;84.50
15617;DHT22;7908;51.688;7.130;2022-08-25T16:22:07;30.20;84.50
15617;DHT22;7908;51.688;7.130;2022-08-25T16:24:38;30.20;86.50
15617;DHT22;7908;51.688;7.130;2022-08-25T16:27:13;30.10;86.30
15617;DHT22;7908;51.688;7.130;2022-08-25T16:29:46;30.10;85.60
15617;DHT22;7908;51.688;7.130;2022-08-25T16:32:25;30.10;85.10
15617;DHT22;7908;51.688;7.130;2022-08-25T16:34:57;30.00;83.80
15617;DHT22;7908;51.688;7.130;2022-08-25T16:37:27;30.00;84.90
15617;DHT22;7908;51.688;7.130;2022-08-25T16:40:01;29.90;86.00
15617;DHT22;7908;51.688;7.130;2022-08-25T16:42:35;29.90;85.90
15617;DHT22;7908;51.688;7.130;2022-08-25T16:45:09;29.90;86.80
15617;DHT22;7908;51.688;7.130;2022-08-25T16:47:45;29.90;86.90
15617;DHT22;7908;51.688;7.130;2022-08-25T16:50:25;29.90;84.50
15617;DHT22;7908;51.688;7.130;2022-08-25T16:53:03;29.90;85.90
15617;DHT22;7908;51.688;7.130;2022-08-25T16:55:59;29.90;84.10
15617;DHT22;7908;51.688;7.130;2022-08-25T16:58:40;29.90;84.40
15617;DHT22;7908;51.688;7.130;2022-08-25T17:01:23;29.90;83.90
15617;DHT22;7908;51.688;7.130;2022-08-25T17:04:04;30.00;84.00
15617;DHT22;7908;51.688;7.130;2022-08-25T17:06:47;29.90;86.20
15617;DHT22;7908;51.688;7.130;2022-08-25T17:09:19;29.90;87.90
15617;DHT22;7908;51.688;7.130;2022-08-25T17:11:52;29.70;89.50